Time;durP1;ratioP1;P1;durP2;ratioP2;P2;SDS_P1;SDS_P2;PMS_P1;PMS_P2;Temp;Humidity;BMP_temperature;BMP_pressure;BME280_temperature;BME280_humidity;BME280_pressure;Samples;Min_cycle;Max_cycle;Signal;HPM_P1;HPM_P2
2022/08/13 00:02:16;;;;;;;9.93;8.37;;;;;;;;;;5114720;28;20619;-80
2022/08/13 00:04:47;;;;;;;9.17;8.27;;;;;;;;;;5115907;28;20302;-80
2022/08/13 00:07:13;;;;;;;10.30;9.30;;;;;;;;;;5115058;28;20201;-80
2022/08/13 00:09:42;;;;;;;10.03;9.13;;;;;;;;;;5114951;28;20206;-80
2022/08/13 00:15:00;;;;;;;10.27;9.07;;;;;;;;;;5107772;28;20222;-80
2022/08/13 00:17:28;;;;;;;10.43;9.33;;;;;;;;;;5107514;28;21061;-80
2022/08/13 00:19:55;;;;;;;10.40;9.23;;;;;;;;;;5114796;28;20192;-80
2022/08/13 00:22:22;;;;;;;10.00;9.00;;;;;;;;;;5114668;28;20211;-80
2022/08/13 00:24:49;;;;;;;10.40;9.50;;;;;;;;;;5114389;28;20196;-80
2022/08/13 00:27:16;;;;;;;11.10;9.03;;;;;;;;;;5114657;28;20199;-80
2022/08/13 00:29:43;;;;;;;10.87;8.87;;;;;;;;;;5114214;28;20200;-80
2022/08/13 00:32:11;;;;;;;10.43;9.43;;;;;;;;;;5114868;28;20195;-80
2022/08/13 00:34:38;;;;;;;11.90;9.10;;;;;;;;;;5114287;28;20606;-80
2022/08/13 00:37:09;;;;;;;12.20;10.77;;;;;;;;;;5114281;28;20570;-80
2022/08/13 00:39:36;;;;;;;9.63;8.83;;;;;;;;;;5114152;28;20230;-80
2022/08/13 00:42:02;;;;;;;10.30;9.40;;;;;;;;;;5113872;28;20191;-80
2022/08/13 00:44:31;;;;;;;12.60;11.07;;;;;;;;;;5114129;28;20231;-79
2022/08/13 00:49:40;;;;;;;10.43;9.43;;;;;;;;;;5113375;28;20670;-80
2022/08/13 00:52:10;;;;;;;10.67;9.60;;;;;;;;;;5113930;28;20207;-80
2022/08/13 00:54:40;;;;;;;9.93;9.03;;;;;;;;;;5114210;28;20248;-79
2022/08/13 00:57:07;;;;;;;10.87;9.77;;;;;;;;;;5113903;28;20268;-80
2022/08/13 00:59:34;;;;;;;11.87;10.60;;;;;;;;;;5098135;28;20258;-80
2022/08/13 01:02:02;;;;;;;10.83;9.83;;;;;;;;;;5113760;28;20780;-80
2022/08/13 01:04:29;;;;;;;12.23;10.37;;;;;;;;;;5113628;28;20212;-80
2022/08/13 01:07:00;;;;;;;10.27;9.37;;;;;;;;;;5113634;28;20207;-80
2022/08/13 01:09:29;;;;;;;11.43;8.97;;;;;;;;;;5113902;28;20571;-80
2022/08/13 01:11:56;;;;;;;10.70;9.60;;;;;;;;;;5113749;28;20195;-80
2022/08/13 01:14:24;;;;;;;11.70;10.10;;;;;;;;;;5113509;28;20210;-80
2022/08/13 01:16:52;;;;;;;10.47;9.57;;;;;;;;;;5113547;28;20657;-80
2022/08/13 01:19:19;;;;;;;11.37;10.27;;;;;;;;;;5113075;28;20195;-80
2022/08/13 01:21:51;;;;;;;11.30;8.93;;;;;;;;;;5114003;28;20614;-81
2022/08/13 01:24:20;;;;;;;29.27;10.53;;;;;;;;;;5113111;28;20705;-81
2022/08/13 01:26:49;;;;;;;21.57;10.57;;;;;;;;;;5113587;28;20187;-80
2022/08/13 01:29:18;;;;;;;20.90;10.53;;;;;;;;;;5113475;28;20664;-80
2022/08/13 01:31:45;;;;;;;11.93;10.53;;;;;;;;;;5113279;28;20199;-79
2022/08/13 01:34:13;;;;;;;11.07;9.97;;;;;;;;;;5113376;28;20206;-80
2022/08/13 01:36:40;;;;;;;10.53;9.53;;;;;;;;;;5112830;28;20241;-80
2022/08/13 01:39:08;;;;;;;10.83;9.83;;;;;;;;;;5113109;28;20195;-80
2022/08/13 01:41:36;;;;;;;10.27;9.37;;;;;;;;;;5113194;28;20746;-80
2022/08/13 01:44:05;;;;;;;11.63;10.43;;;;;;;;;;5112704;28;20229;-79
2022/08/13 01:50:28;;;;;;;11.20;9.87;;;;;;;;;;5112975;28;20235;-80
2022/08/13 01:52:06;;;;;;;10.00;9.10;;;;;;;;;;5112657;28;20333;-80
2022/08/13 01:54:36;;;;;;;11.47;9.33;;;;;;;;;;5112811;28;20202;-80
2022/08/13 01:57:05;;;;;;;15.93;10.07;;;;;;;;;;5113052;28;20195;-80
2022/08/13 01:59:34;;;;;;;11.53;10.00;;;;;;;;;;5098010;28;20195;-80
2022/08/13 02:02:01;;;;;;;12.73;10.07;;;;;;;;;;5112962;28;20199;-80
2022/08/13 02:04:28;;;;;;;11.00;9.90;;;;;;;;;;5112190;28;20222;-80
2022/08/13 02:06:59;;;;;;;11.07;9.93;;;;;;;;;;5112505;28;20199;-80
2022/08/13 02:09:26;;;;;;;10.87;9.47;;;;;;;;;;5112608;28;20195;-80
2022/08/13 02:11:55;;;;;;;10.90;9.17;;;;;;;;;;5112476;28;20195;-80
2022/08/13 02:14:22;;;;;;;11.73;8.67;;;;;;;;;;5112518;28;20324;-80
2022/08/13 02:16:49;;;;;;;10.40;9.40;;;;;;;;;;5112696;28;20202;-80
2022/08/13 02:19:16;;;;;;;10.70;9.70;;;;;;;;;;5112246;28;20264;-81
2022/08/13 02:21:44;;;;;;;9.73;8.67;;;;;;;;;;5112122;28;20191;-81
2022/08/13 02:24:13;;;;;;;9.70;8.73;;;;;;;;;;5111920;28;20774;-80
2022/08/13 02:26:42;;;;;;;14.67;8.57;;;;;;;;;;5112286;28;20248;-80
2022/08/13 02:29:12;;;;;;;13.37;9.17;;;;;;;;;;5112351;28;20666;-80
2022/08/13 02:31:39;;;;;;;12.33;9.27;;;;;;;;;;5111968;28;20188;-81
2022/08/13 02:34:06;;;;;;;9.67;8.83;;;;;;;;;;5111967;28;20203;-80
2022/08/13 02:36:34;;;;;;;9.53;8.63;;;;;;;;;;5111774;28;20202;-81
2022/08/13 02:39:07;;;;;;;9.23;8.43;;;;;;;;;;5112373;28;20287;-80
2022/08/13 02:41:41;;;;;;;8.47;7.70;;;;;;;;;;5111608;28;20562;-80
2022/08/13 02:44:10;;;;;;;10.23;8.53;;;;;;;;;;5111701;28;20309;-81
2022/08/13 02:46:37;;;;;;;9.17;8.37;;;;;;;;;;5111902;28;20231;-81
2022/08/13 02:49:04;;;;;;;8.90;8.17;;;;;;;;;;5111890;28;20555;-80
2022/08/13 02:51:32;;;;;;;11.10;7.73;;;;;;;;;;5112216;28;20195;-81
2022/08/13 02:54:00;;;;;;;8.67;7.50;;;;;;;;;;5111488;28;20202;-80
2022/08/13 02:56:27;;;;;;;11.57;8.17;;;;;;;;;;5111800;28;20218;-80
2022/08/13 02:58:55;;;;;;;11.57;8.77;;;;;;;;;;5111694;28;20210;-81
2022/08/13 03:01:24;;;;;;;9.70;7.50;;;;;;;;;;5111658;28;20231;-81
2022/08/13 03:03:50;;;;;;;9.10;8.30;;;;;;;;;;5112071;28;20223;-81
2022/08/13 03:06:19;;;;;;;8.53;7.70;;;;;;;;;;5111535;28;20187;-81
2022/08/13 03:08:48;;;;;;;7.97;7.23;;;;;;;;;;5111553;28;20199;-80
2022/08/13 03:11:15;;;;;;;8.13;7.33;;;;;;;;;;5111458;28;20595;-81
2022/08/13 03:13:43;;;;;;;8.67;7.80;;;;;;;;;;5111580;28;20590;-81
2022/08/13 03:16:10;;;;;;;12.57;8.63;;;;;;;;;;5110826;28;20195;-81
2022/08/13 03:18:39;;;;;;;63.83;13.47;;;;;;;;;;5102645;28;20204;-80
2022/08/13 03:21:06;;;;;;;10.63;8.63;;;;;;;;;;5106730;28;20195;-80
2022/08/13 03:23:34;;;;;;;11.90;8.43;;;;;;;;;;5111552;28;20238;-81
2022/08/13 03:26:01;;;;;;;11.23;9.17;;;;;;;;;;5110965;28;20744;-81
2022/08/13 03:28:27;;;;;;;9.30;8.43;;;;;;;;;;5111070;28;20191;-80
2022/08/13 03:30:54;;;;;;;9.33;7.83;;;;;;;;;;5111232;28;20204;-80
2022/08/13 03:33:21;;;;;;;8.90;7.60;;;;;;;;;;5110808;28;20206;-81
2022/08/13 03:35:49;;;;;;;9.57;8.57;;;;;;;;;;5111279;28;20199;-81
2022/08/13 03:38:16;;;;;;;9.47;8.57;;;;;;;;;;5110850;28;20199;-80
2022/08/13 03:41:01;;;;;;;8.53;7.77;;;;;;;;;;5111164;28;20195;-81
2022/08/13 03:43:29;;;;;;;10.20;8.03;;;;;;;;;;5110745;28;20702;-81
2022/08/13 03:45:57;;;;;;;10.10;9.20;;;;;;;;;;5111390;28;20274;-81
2022/08/13 03:48:26;;;;;;;11.40;10.17;;;;;;;;;;5111369;28;20199;-81
2022/08/13 03:50:55;;;;;;;10.37;9.17;;;;;;;;;;5110755;28;20199;-80
2022/08/13 03:53:22;;;;;;;14.90;11.13;;;;;;;;;;5111238;28;20282;-81
2022/08/13 03:55:49;;;;;;;12.50;11.30;;;;;;;;;;5110544;28;20676;-81
2022/08/13 03:58:17;;;;;;;10.90;9.87;;;;;;;;;;5111049;28;20203;-81
2022/08/13 04:00:47;;;;;;;13.07;9.37;;;;;;;;;;5110896;28;20227;-81
2022/08/13 04:03:19;;;;;;;13.43;9.50;;;;;;;;;;5110663;28;20204;-81
2022/08/13 04:05:46;;;;;;;12.07;9.13;;;;;;;;;;5110824;28;20231;-81
2022/08/13 04:08:14;;;;;;;13.23;8.50;;;;;;;;;;5110423;28;20680;-81
2022/08/13 04:10:41;;;;;;;9.57;8.77;;;;;;;;;;5110785;28;20199;-81
2022/08/13 04:13:12;;;;;;;12.10;8.43;;;;;;;;;;5110628;28;20200;-81
2022/08/13 04:15:42;;;;;;;11.70;9.40;;;;;;;;;;5111188;28;20230;-80
2022/08/13 04:18:11;;;;;;;11.10;9.23;;;;;;;;;;5110908;28;20196;-81
2022/08/13 04:20:39;;;;;;;9.60;8.63;;;;;;;;;;5110253;28;20211;-81
2022/08/13 04:23:09;;;;;;;9.57;8.50;;;;;;;;;;5110631;28;20196;-81
2022/08/13 04:25:39;;;;;;;10.43;8.13;;;;;;;;;;5110399;28;20589;-81
2022/08/13 04:28:07;;;;;;;10.27;8.77;;;;;;;;;;5111275;28;20652;-81
2022/08/13 04:30:35;;;;;;;10.23;8.70;;;;;;;;;;5114653;28;20195;-81
2022/08/13 04:33:03;;;;;;;10.20;9.20;;;;;;;;;;5114754;28;20207;-81
2022/08/13 04:35:30;;;;;;;9.37;8.47;;;;;;;;;;5114510;28;20195;-81
2022/08/13 04:37:57;;;;;;;8.90;7.93;;;;;;;;;;5114718;28;20195;-81
2022/08/13 04:40:24;;;;;;;9.00;8.10;;;;;;;;;;5100060;28;20295;-81
2022/08/13 04:42:54;;;;;;;10.70;8.50;;;;;;;;;;5114188;28;20678;-81
2022/08/13 04:45:21;;;;;;;22.00;14.33;;;;;;;;;;5113961;28;20219;-81
2022/08/13 04:47:47;;;;;;;13.40;10.40;;;;;;;;;;5114211;28;20210;-81
2022/08/13 04:50:15;;;;;;;14.60;11.03;;;;;;;;;;5114095;28;20694;-81
2022/08/13 04:52:42;;;;;;;17.37;10.23;;;;;;;;;;5114168;28;20226;-81
2022/08/13 04:55:11;;;;;;;10.53;9.00;;;;;;;;;;5114311;28;20196;-81
2022/08/13 04:57:38;;;;;;;9.20;8.27;;;;;;;;;;5113827;28;20276;-81
2022/08/13 05:00:08;;;;;;;9.47;8.77;;;;;;;;;;5114141;28;20255;-81
2022/08/13 05:02:37;;;;;;;9.97;8.07;;;;;;;;;;5113828;28;20194;-81
2022/08/13 05:05:05;;;;;;;10.33;8.43;;;;;;;;;;5113911;28;20284;-81
2022/08/13 05:07:32;;;;;;;12.00;7.97;;;;;;;;;;5114052;28;20206;-81
2022/08/13 05:09:59;;;;;;;10.23;8.20;;;;;;;;;;5113968;28;20195;-81
2022/08/13 05:12:26;;;;;;;9.63;8.77;;;;;;;;;;5113923;28;20207;-81
2022/08/13 05:14:53;;;;;;;11.50;8.63;;;;;;;;;;5113709;28;20199;-81
2022/08/13 05:17:21;;;;;;;18.67;14.30;;;;;;;;;;5113796;28;20208;-81
2022/08/13 05:19:48;;;;;;;19.00;10.53;;;;;;;;;;5113625;28;20290;-80
2022/08/13 05:22:15;;;;;;;74.83;48.33;;;;;;;;;;5113934;28;20291;-81
2022/08/13 05:24:42;;;;;;;71.87;51.83;;;;;;;;;;5113542;28;20227;-81
2022/08/13 05:27:11;;;;;;;107.93;74.40;;;;;;;;;;5113829;28;20256;-81
2022/08/13 05:29:39;;;;;;;189.50;130.10;;;;;;;;;;5112988;28;20211;-81
2022/08/13 05:32:06;;;;;;;217.43;153.03;;;;;;;;;;5113416;28;20207;-83
2022/08/13 05:34:34;;;;;;;242.00;161.93;;;;;;;;;;5113126;28;20681;-81
2022/08/13 05:37:01;;;;;;;43.13;33.57;;;;;;;;;;5113414;28;20199;-81
2022/08/13 05:39:28;;;;;;;22.57;18.37;;;;;;;;;;5112519;28;20203;-81
2022/08/13 05:41:55;;;;;;;12.47;9.90;;;;;;;;;;5112470;28;20734;-81
2022/08/13 05:44:22;;;;;;;13.47;9.90;;;;;;;;;;5112986;28;20280;-81
2022/08/13 05:46:49;;;;;;;9.47;8.47;;;;;;;;;;5112825;28;20241;-81
2022/08/13 05:49:15;;;;;;;8.50;7.67;;;;;;;;;;5112913;28;20199;-81
2022/08/13 05:51:44;;;;;;;8.87;7.97;;;;;;;;;;5112897;28;20199;-81
2022/08/13 05:54:12;;;;;;;9.40;7.50;;;;;;;;;;5112753;28;20211;-81
2022/08/13 05:56:39;;;;;;;11.70;7.73;;;;;;;;;;5112625;28;20576;-81
2022/08/13 05:59:06;;;;;;;14.60;9.37;;;;;;;;;;5112563;28;20661;-83
2022/08/13 06:04:19;;;;;;;14.53;9.50;;;;;;;;;;5112575;28;20364;-81
2022/08/13 06:06:48;;;;;;;10.30;9.17;;;;;;;;;;5112484;28;20195;-81
2022/08/13 06:09:15;;;;;;;11.37;9.10;;;;;;;;;;5112669;28;20569;-81
2022/08/13 06:11:42;;;;;;;9.53;8.73;;;;;;;;;;5112975;28;20200;-80
2022/08/13 06:14:10;;;;;;;9.13;8.33;;;;;;;;;;5112636;28;20200;-81
2022/08/13 06:16:37;;;;;;;11.97;9.07;;;;;;;;;;5112592;28;20657;-81
2022/08/13 06:19:05;;;;;;;15.67;9.43;;;;;;;;;;5112352;28;20199;-81
2022/08/13 06:21:32;;;;;;;15.63;8.53;;;;;;;;;;5112072;28;20196;-82
2022/08/13 06:24:05;;;;;;;10.20;9.20;;;;;;;;;;5112474;28;20195;-81
2022/08/13 06:26:32;;;;;;;10.77;9.20;;;;;;;;;;5111999;28;20299;-81
2022/08/13 06:29:01;;;;;;;9.63;8.63;;;;;;;;;;5103397;28;20204;-81
2022/08/13 06:31:30;;;;;;;10.77;8.47;;;;;;;;;;5107492;28;20623;-81
2022/08/13 06:33:57;;;;;;;9.87;8.87;;;;;;;;;;5112134;28;20548;-81
2022/08/13 06:36:29;;;;;;;11.20;9.77;;;;;;;;;;5111868;28;20673;-81
2022/08/13 06:38:59;;;;;;;11.00;9.53;;;;;;;;;;5112132;28;20689;-81
2022/08/13 06:41:28;;;;;;;15.53;8.27;;;;;;;;;;5111981;28;20282;-81
2022/08/13 06:43:56;;;;;;;13.37;9.57;;;;;;;;;;5098233;28;20195;-81
2022/08/13 06:46:25;;;;;;;10.87;9.87;;;;;;;;;;5111832;28;20215;-81
2022/08/13 06:48:52;;;;;;;11.17;10.10;;;;;;;;;;5097905;28;20199;-81
2022/08/13 06:51:20;;;;;;;10.40;9.40;;;;;;;;;;5111729;28;20207;-81
2022/08/13 06:53:47;;;;;;;9.70;8.67;;;;;;;;;;5107281;28;20246;-81
2022/08/13 06:56:17;;;;;;;10.50;9.50;;;;;;;;;;5102256;28;20301;-81
2022/08/13 06:58:47;;;;;;;11.67;9.63;;;;;;;;;;5112218;28;20222;-81
2022/08/13 07:01:17;;;;;;;9.27;8.33;;;;;;;;;;5111720;28;20227;-81
2022/08/13 07:03:44;;;;;;;10.13;9.13;;;;;;;;;;5111550;28;20230;-81
2022/08/13 07:06:16;;;;;;;11.87;8.93;;;;;;;;;;5111582;28;20590;-80
2022/08/13 07:08:43;;;;;;;8.80;7.83;;;;;;;;;;5111451;28;20689;-80
2022/08/13 07:11:23;;;;;;;9.77;8.87;;;;;;;;;;5111373;28;20187;-81
2022/08/13 07:13:54;;;;;;;10.23;8.67;;;;;;;;;;5111648;28;20616;-81
2022/08/13 07:16:25;;;;;;;9.80;8.90;;;;;;;;;;5111283;28;20565;-80
2022/08/13 07:18:53;;;;;;;8.97;8.07;;;;;;;;;;5111445;28;20195;-81
2022/08/13 07:21:22;;;;;;;11.50;10.40;;;;;;;;;;5111245;28;20192;-80
2022/08/13 07:23:50;;;;;;;12.17;8.83;;;;;;;;;;5111216;28;20195;-81
2022/08/13 07:26:18;;;;;;;10.23;9.33;;;;;;;;;;5110672;28;20226;-81
2022/08/13 07:28:46;;;;;;;11.97;8.77;;;;;;;;;;5111202;28;20195;-81
2022/08/13 07:31:16;;;;;;;9.53;8.70;;;;;;;;;;5111022;28;20211;-82
2022/08/13 07:33:48;;;;;;;10.73;9.47;;;;;;;;;;5111334;28;20288;-81
2022/08/13 07:36:16;;;;;;;18.43;9.57;;;;;;;;;;5110976;28;20209;-81
2022/08/13 07:38:42;;;;;;;10.23;9.30;;;;;;;;;;5110836;28;20795;-82
2022/08/13 07:41:11;;;;;;;14.37;8.87;;;;;;;;;;5111297;28;20248;-81
2022/08/13 07:43:41;;;;;;;9.53;8.63;;;;;;;;;;5110958;28;20688;-80
2022/08/13 07:46:10;;;;;;;9.03;8.10;;;;;;;;;;5111357;28;20291;-81
2022/08/13 07:48:39;;;;;;;10.80;8.73;;;;;;;;;;5110925;28;20191;-80
2022/08/13 07:51:10;;;;;;;9.50;8.67;;;;;;;;;;5110935;28;20199;-80
2022/08/13 07:53:39;;;;;;;10.00;9.10;;;;;;;;;;5110767;28;20669;-80
2022/08/13 07:56:07;;;;;;;9.60;8.63;;;;;;;;;;5110765;28;20192;-80
2022/08/13 07:58:35;;;;;;;11.40;8.83;;;;;;;;;;5110852;28;20674;-80
2022/08/13 08:01:03;;;;;;;9.85;8.68;;;;;;;;;;5110935;28;20235;-80
2022/08/13 08:03:32;;;;;;;9.18;8.38;;;;;;;;;;5112555;28;20200;-80
2022/08/13 08:06:03;;;;;;;11.90;8.50;;;;;;;;;;5114956;28;20218;-80
2022/08/13 08:08:33;;;;;;;11.23;8.10;;;;;;;;;;5115203;28;20188;-80
2022/08/13 08:11:01;;;;;;;8.93;8.20;;;;;;;;;;5114982;28;20203;-80
2022/08/13 08:13:31;;;;;;;8.73;7.88;;;;;;;;;;5114746;28;20283;-81
2022/08/13 08:15:57;;;;;;;9.10;8.20;;;;;;;;;;5114911;28;20693;-79
2022/08/13 08:18:25;;;;;;;8.77;8.02;;;;;;;;;;5114857;28;20218;-80
2022/08/13 08:21:07;;;;;;;9.45;8.50;;;;;;;;;;5114594;28;20694;-80
2022/08/13 08:23:36;;;;;;;11.30;8.80;;;;;;;;;;5114959;28;20244;-80
2022/08/13 08:26:07;;;;;;;9.73;8.80;;;;;;;;;;5114198;28;20280;-81
2022/08/13 08:28:35;;;;;;;8.82;8.02;;;;;;;;;;5114511;28;20323;-80
2022/08/13 08:31:06;;;;;;;8.82;7.63;;;;;;;;;;5114707;28;20199;-81
2022/08/13 08:33:34;;;;;;;9.05;8.25;;;;;;;;;;5114361;28;20279;-80
2022/08/13 08:36:03;;;;;;;9.40;8.60;;;;;;;;;;5114571;28;20191;-80
2022/08/13 08:43:59;;;;;;;9.00;8.10;;;;;;;;;;5114405;28;20237;-80
2022/08/13 08:46:27;;;;;;;8.82;7.60;;;;;;;;;;5113929;28;20235;-80
2022/08/13 08:48:57;;;;;;;10.35;7.45;;;;;;;;;;5114058;28;20241;-81
2022/08/13 08:51:28;;;;;;;7.90;7.13;;;;;;;;;;5114167;28;20192;-80
2022/08/13 08:53:55;;;;;;;7.90;7.20;;;;;;;;;;5114152;28;20278;-80
2022/08/13 08:56:22;;;;;;;9.63;7.38;;;;;;;;;;5114195;28;20206;-81
2022/08/13 08:58:49;;;;;;;10.00;8.15;;;;;;;;;;5113996;28;20199;-80
2022/08/13 09:01:21;;;;;;;8.25;7.45;;;;;;;;;;5099597;28;20223;-80
2022/08/13 09:03:48;;;;;;;8.52;7.75;;;;;;;;;;5114063;28;20564;-80
2022/08/13 09:06:15;;;;;;;12.18;7.88;;;;;;;;;;5113432;28;20601;-81
2022/08/13 09:08:46;;;;;;;8.20;7.35;;;;;;;;;;5114388;28;20254;-80
2022/08/13 09:11:14;;;;;;;8.35;7.50;;;;;;;;;;5113729;28;20199;-80
2022/08/13 09:13:49;;;;;;;7.55;6.80;;;;;;;;;;5113846;28;20670;-80
2022/08/13 09:16:16;;;;;;;11.60;8.48;;;;;;;;;;5112473;28;20202;-80
2022/08/13 09:18:44;;;;;;;8.55;6.55;;;;;;;;;;5113254;28;20282;-80
2022/08/13 09:21:11;;;;;;;7.70;7.00;;;;;;;;;;5113816;28;20282;-80
2022/08/13 09:23:42;;;;;;;8.10;7.03;;;;;;;;;;5113465;28;20199;-80
2022/08/13 09:26:11;;;;;;;9.15;8.13;;;;;;;;;;5113647;28;20221;-81
2022/08/13 09:28:38;;;;;;;7.88;7.07;;;;;;;;;;5113443;28;20199;-81
2022/08/13 09:31:06;;;;;;;6.18;5.68;;;;;;;;;;5113237;28;20203;-81
2022/08/13 09:33:33;;;;;;;7.93;6.15;;;;;;;;;;5113677;28;20651;-80
2022/08/13 09:36:00;;;;;;;9.30;6.13;;;;;;;;;;5113090;28;20253;-80
2022/08/13 09:38:27;;;;;;;8.05;6.00;;;;;;;;;;5113416;28;20195;-80
2022/08/13 09:40:56;;;;;;;7.22;5.85;;;;;;;;;;5113309;28;20675;-80
2022/08/13 09:43:31;;;;;;;7.55;6.82;;;;;;;;;;5113200;28;20234;-79
2022/08/13 09:45:58;;;;;;;6.50;5.90;;;;;;;;;;5113188;28;20223;-81
2022/08/13 09:48:28;;;;;;;9.82;6.90;;;;;;;;;;5112801;28;20207;-80
2022/08/13 09:50:55;;;;;;;7.60;6.82;;;;;;;;;;5112984;28;20294;-81
2022/08/13 09:53:25;;;;;;;7.32;6.78;;;;;;;;;;5112929;28;20199;-81
2022/08/13 09:55:52;;;;;;;6.57;5.90;;;;;;;;;;5112779;28;20654;-80
2022/08/13 09:58:18;;;;;;;7.05;6.35;;;;;;;;;;5112631;28;20195;-80
2022/08/13 10:00:47;;;;;;;7.47;6.88;;;;;;;;;;5112651;28;20215;-81
2022/08/13 10:03:17;;;;;;;7.22;6.63;;;;;;;;;;5113206;28;20599;-81
2022/08/13 10:05:47;;;;;;;7.10;6.43;;;;;;;;;;5112617;28;20635;-80
2022/08/13 10:08:16;;;;;;;7.70;7.10;;;;;;;;;;5113109;28;20249;-80
2022/08/13 10:10:44;;;;;;;7.47;6.78;;;;;;;;;;5112690;28;20739;-80
2022/08/13 10:13:11;;;;;;;8.10;7.30;;;;;;;;;;5112447;28;20253;-80
2022/08/13 10:15:38;;;;;;;9.45;8.75;;;;;;;;;;5112501;28;20199;-80
2022/08/13 10:18:06;;;;;;;7.40;6.65;;;;;;;;;;5112290;28;20191;-80
2022/08/13 10:20:36;;;;;;;7.63;7.03;;;;;;;;;;5112298;28;20203;-81
2022/08/13 10:23:04;;;;;;;7.45;6.70;;;;;;;;;;5112250;28;20195;-81
2022/08/13 10:25:31;;;;;;;7.90;7.10;;;;;;;;;;5111572;28;20211;-81
2022/08/13 10:27:58;;;;;;;8.48;7.68;;;;;;;;;;5112135;28;20658;-80
2022/08/13 10:30:26;;;;;;;8.90;7.35;;;;;;;;;;5112540;28;20598;-80
2022/08/13 10:32:55;;;;;;;7.97;7.28;;;;;;;;;;5112003;28;20581;-80
2022/08/13 10:35:24;;;;;;;7.95;7.25;;;;;;;;;;5112407;28;20191;-80
2022/08/13 10:37:56;;;;;;;7.55;6.95;;;;;;;;;;5112359;28;20278;-80
2022/08/13 10:40:24;;;;;;;7.00;6.30;;;;;;;;;;5112383;28;20199;-80
2022/08/13 10:42:52;;;;;;;8.20;7.50;;;;;;;;;;5111992;28;20665;-80
2022/08/13 10:45:19;;;;;;;8.25;7.45;;;;;;;;;;5111561;28;20633;-81
2022/08/13 10:47:46;;;;;;;7.30;6.72;;;;;;;;;;5112178;28;20195;-81
2022/08/13 10:50:13;;;;;;;7.15;6.50;;;;;;;;;;5111970;28;20195;-80
2022/08/13 10:52:43;;;;;;;8.10;6.38;;;;;;;;;;5111794;28;20187;-80
2022/08/13 10:55:12;;;;;;;7.45;6.85;;;;;;;;;;5111935;28;20252;-80
2022/08/13 10:57:40;;;;;;;6.65;6.05;;;;;;;;;;5111337;28;20237;-80
2022/08/13 11:00:09;;;;;;;7.65;6.40;;;;;;;;;;5111729;28;20234;-80
2022/08/13 11:02:37;;;;;;;7.13;6.40;;;;;;;;;;5111440;28;20183;-80
2022/08/13 11:05:05;;;;;;;7.35;6.57;;;;;;;;;;5111526;28;20199;-80
2022/08/13 11:07:33;;;;;;;6.90;6.30;;;;;;;;;;5111279;28;20219;-80
2022/08/13 11:10:02;;;;;;;6.90;6.28;;;;;;;;;;5111373;28;20350;-80
2022/08/13 11:12:29;;;;;;;7.35;6.68;;;;;;;;;;5111417;28;20199;-81
2022/08/13 11:14:56;;;;;;;7.53;6.82;;;;;;;;;;5111468;28;20191;-80
2022/08/13 11:17:23;;;;;;;6.60;6.00;;;;;;;;;;5111768;28;20223;-80
2022/08/13 11:19:50;;;;;;;6.63;6.13;;;;;;;;;;5111357;28;20196;-80
2022/08/13 11:22:17;;;;;;;7.55;6.10;;;;;;;;;;5111139;28;20200;-80
2022/08/13 11:24:44;;;;;;;6.32;5.82;;;;;;;;;;5111641;28;20199;-80
2022/08/13 11:27:13;;;;;;;6.95;6.25;;;;;;;;;;5111184;28;20250;-80
2022/08/13 11:29:40;;;;;;;6.22;5.72;;;;;;;;;;5110932;28;20206;-80
2022/08/13 11:32:07;;;;;;;6.10;5.60;;;;;;;;;;5111557;28;20202;-80
2022/08/13 11:34:37;;;;;;;5.90;5.38;;;;;;;;;;5110920;28;20200;-80
2022/08/13 11:37:04;;;;;;;7.32;6.35;;;;;;;;;;5110911;28;20676;-80
2022/08/13 11:39:30;;;;;;;6.25;5.65;;;;;;;;;;5110178;28;20692;-81
2022/08/13 11:41:57;;;;;;;6.53;5.93;;;;;;;;;;5110817;28;20192;-80
2022/08/13 11:44:25;;;;;;;6.30;5.70;;;;;;;;;;5111261;28;20282;-79
2022/08/13 11:46:52;;;;;;;7.85;5.75;;;;;;;;;;5110609;28;20211;-79
2022/08/13 11:49:20;;;;;;;5.63;5.13;;;;;;;;;;5110967;28;20196;-79
2022/08/13 11:51:47;;;;;;;5.68;5.28;;;;;;;;;;5111161;28;20256;-79
2022/08/13 11:54:13;;;;;;;7.00;6.07;;;;;;;;;;5111118;28;20196;-80
2022/08/13 11:56:40;;;;;;;6.18;5.78;;;;;;;;;;5111412;28;20191;-80
2022/08/13 11:59:07;;;;;;;6.07;5.45;;;;;;;;;;5111303;28;20202;-81
2022/08/13 12:01:36;;;;;;;6.60;5.90;;;;;;;;;;5110685;28;20792;-80
2022/08/13 12:04:03;;;;;;;7.60;5.45;;;;;;;;;;5111118;28;20199;-80
2022/08/13 12:06:30;;;;;;;5.82;5.32;;;;;;;;;;5110596;28;20572;-80
2022/08/13 12:08:56;;;;;;;6.43;5.88;;;;;;;;;;5111258;28;20196;-80
2022/08/13 12:11:23;;;;;;;6.03;5.55;;;;;;;;;;5110625;28;20196;-80
2022/08/13 12:13:50;;;;;;;6.47;5.85;;;;;;;;;;5110747;28;20555;-80
2022/08/13 12:16:17;;;;;;;6.03;5.57;;;;;;;;;;5111163;28;20219;-80
2022/08/13 12:18:46;;;;;;;6.10;5.60;;;;;;;;;;5110853;28;20207;-80
2022/08/13 12:21:12;;;;;;;7.75;6.15;;;;;;;;;;5110782;28;20204;-80
2022/08/13 12:23:39;;;;;;;7.20;6.40;;;;;;;;;;5102064;28;20200;-80
2022/08/13 12:26:06;;;;;;;6.15;5.65;;;;;;;;;;5104770;28;20215;-80
2022/08/13 12:28:33;;;;;;;6.38;5.88;;;;;;;;;;5110994;28;20188;-80
2022/08/13 12:31:01;;;;;;;6.85;6.22;;;;;;;;;;5110598;28;20684;-79
2022/08/13 12:33:29;;;;;;;6.07;5.28;;;;;;;;;;5110884;28;20192;-79
2022/08/13 12:35:59;;;;;;;7.85;5.80;;;;;;;;;;5111648;28;20203;-81
2022/08/13 12:38:26;;;;;;;7.05;6.45;;;;;;;;;;5110446;28;20195;-80
2022/08/13 12:40:54;;;;;;;15.30;6.30;;;;;;;;;;5110762;28;20200;-80
2022/08/13 12:43:21;;;;;;;6.45;5.82;;;;;;;;;;5110336;28;20203;-80
2022/08/13 12:45:48;;;;;;;6.25;5.65;;;;;;;;;;5110348;28;20199;-80
2022/08/13 12:48:16;;;;;;;7.18;6.57;;;;;;;;;;5110320;28;20577;-80
2022/08/13 12:50:45;;;;;;;6.43;5.75;;;;;;;;;;5106421;28;20196;-80
2022/08/13 12:53:14;;;;;;;7.20;6.50;;;;;;;;;;5108079;28;20196;-80
2022/08/13 12:55:44;;;;;;;7.47;6.32;;;;;;;;;;5114013;28;20550;-80
2022/08/13 12:58:16;;;;;;;6.28;5.75;;;;;;;;;;5113976;28;20226;-80
2022/08/13 13:00:43;;;;;;;6.60;6.10;;;;;;;;;;5114469;28;20231;-80
2022/08/13 13:03:11;;;;;;;6.43;5.82;;;;;;;;;;5113595;28;20688;-80
2022/08/13 13:05:37;;;;;;;11.02;6.50;;;;;;;;;;5114062;28;20200;-81
2022/08/13 13:08:16;;;;;;;6.35;5.85;;;;;;;;;;5114041;28;20223;-81
2022/08/13 13:10:45;;;;;;;6.32;5.82;;;;;;;;;;5114083;28;20198;-80
2022/08/13 13:13:12;;;;;;;6.95;6.38;;;;;;;;;;5114021;28;20203;-80
2022/08/13 13:15:40;;;;;;;6.53;5.93;;;;;;;;;;5113772;28;20252;-80
2022/08/13 13:18:11;;;;;;;6.57;5.93;;;;;;;;;;5113647;28;20568;-81
2022/08/13 13:20:41;;;;;;;6.18;5.53;;;;;;;;;;5113879;28;20268;-80
2022/08/13 13:23:09;;;;;;;6.72;5.38;;;;;;;;;;5114017;28;20546;-81
2022/08/13 13:25:37;;;;;;;6.15;5.63;;;;;;;;;;5113686;28;20203;-80
2022/08/13 13:28:08;;;;;;;6.20;5.70;;;;;;;;;;5113076;28;20227;-82
2022/08/13 13:30:36;;;;;;;6.03;5.53;;;;;;;;;;5113480;28;20670;-80
2022/08/13 13:33:03;;;;;;;9.38;6.25;;;;;;;;;;5113170;28;20219;-80
2022/08/13 13:35:32;;;;;;;6.90;6.30;;;;;;;;;;5112536;28;20195;-80
2022/08/13 13:38:00;;;;;;;6.78;6.07;;;;;;;;;;5113427;28;20226;-80
2022/08/13 13:40:27;;;;;;;7.47;5.55;;;;;;;;;;5113357;28;20199;-80
2022/08/13 13:42:57;;;;;;;6.78;6.18;;;;;;;;;;5113249;28;20203;-80
2022/08/13 13:45:24;;;;;;;8.73;7.18;;;;;;;;;;5112991;28;20192;-80
2022/08/13 13:47:52;;;;;;;7.05;6.45;;;;;;;;;;5112889;28;20268;-80
2022/08/13 13:50:19;;;;;;;6.75;6.03;;;;;;;;;;5112919;28;20231;-80
2022/08/13 13:52:46;;;;;;;8.13;5.80;;;;;;;;;;5112871;28;20202;-80
2022/08/13 13:55:13;;;;;;;7.05;6.43;;;;;;;;;;5113239;28;20199;-80
2022/08/13 13:57:40;;;;;;;6.35;5.85;;;;;;;;;;5112988;28;20635;-80
2022/08/13 14:00:11;;;;;;;7.18;6.55;;;;;;;;;;5113134;28;20219;-81
2022/08/13 14:02:40;;;;;;;6.38;5.78;;;;;;;;;;5111700;28;20191;-79
2022/08/13 14:05:08;;;;;;;6.80;5.85;;;;;;;;;;5112462;28;20207;-81
2022/08/13 14:07:35;;;;;;;9.38;5.63;;;;;;;;;;5112855;28;20253;-79
2022/08/13 14:10:02;;;;;;;6.75;6.05;;;;;;;;;;5112616;28;20199;-79
2022/08/13 14:12:30;;;;;;;6.78;6.28;;;;;;;;;;5112562;28;20200;-80
2022/08/13 14:14:57;;;;;;;6.47;5.82;;;;;;;;;;5112406;28;20683;-80
2022/08/13 14:17:26;;;;;;;6.90;6.15;;;;;;;;;;5112323;28;20211;-80
2022/08/13 14:19:53;;;;;;;6.70;6.10;;;;;;;;;;5112503;28;20199;-80
2022/08/13 14:22:20;;;;;;;9.20;6.57;;;;;;;;;;5112365;28;20195;-79
2022/08/13 14:24:48;;;;;;;6.95;6.35;;;;;;;;;;5112472;28;20191;-78
2022/08/13 14:27:15;;;;;;;7.22;5.82;;;;;;;;;;5112050;28;20251;-80
2022/08/13 14:29:44;;;;;;;6.15;5.68;;;;;;;;;;5112010;28;20274;-80
2022/08/13 14:32:11;;;;;;;8.45;6.75;;;;;;;;;;5112172;28;20286;-80
2022/08/13 14:34:39;;;;;;;6.65;6.05;;;;;;;;;;5112561;28;20195;-79
2022/08/13 14:37:06;;;;;;;9.60;5.90;;;;;;;;;;5112184;28;20203;-80
2022/08/13 14:39:34;;;;;;;6.77;6.17;;;;;;;;;;5111980;28;20191;-78
2022/08/13 14:42:01;;;;;;;6.90;6.20;;;;;;;;;;5093515;28;20282;-79
2022/08/13 14:44:28;;;;;;;6.90;6.27;;;;;;;;;;5112433;28;20227;-79
2022/08/13 14:46:54;;;;;;;6.60;6.10;;;;;;;;;;5111791;28;20630;-79
2022/08/13 14:49:22;;;;;;;5.80;5.40;;;;;;;;;;5111627;28;20571;-79
2022/08/13 14:51:50;;;;;;;8.00;7.30;;;;;;;;;;5111689;28;20676;-78
2022/08/13 14:54:17;;;;;;;8.23;7.40;;;;;;;;;;5111789;28;20618;-80
2022/08/13 14:56:43;;;;;;;6.93;5.97;;;;;;;;;;5111527;28;20195;-79
2022/08/13 14:59:10;;;;;;;7.20;6.60;;;;;;;;;;5111671;28;20207;-78